Time;durP1;ratioP1;P1;durP2;ratioP2;P2;SDS_P1;SDS_P2;PMS_P1;PMS_P2;Temp;Humidity;BMP_temperature;BMP_pressure;BME280_temperature;BME280_humidity;BME280_pressure;Samples;Min_cycle;Max_cycle;Signal;HPM_P1;HPM_P2
2024/04/15 00:10:22;;;;;;;4.40;3.30;;;;;;;19.10;100.00;99751.66;33604204;26;20473;-74
2024/04/15 00:25:24;;;;;;;6.20;4.30;;;;;;;19.17;100.00;99729.19;33586996;26;20455;-75
2024/04/15 00:40:27;;;;;;;8.65;4.93;;;;;;;19.22;100.00;99730.47;33556579;26;19999;-76
2024/04/15 00:55:34;;;;;;;7.93;3.90;;;;;;;19.43;100.00;99790.47;33605534;26;20012;-77
2024/04/15 01:10:36;;;;;;;6.30;3.60;;;;;;;19.27;100.00;99826.84;33604698;26;20014;-75
2024/04/15 01:26:00;;;;;;;6.00;3.58;;;;;;;19.52;100.00;99813.63;33581278;26;20366;-76
2024/04/15 01:41:02;;;;;;;6.20;3.80;;;;;;;19.43;100.00;99790.47;33593021;26;20413;-74
2024/04/15 01:56:05;;;;;;;11.93;4.63;;;;;;;19.20;100.00;99788.75;33534299;26;20011;-75
2024/04/15 02:11:07;;;;;;;7.03;4.50;;;;;;;18.08;100.00;99788.56;33548138;26;20019;-75
2024/04/15 02:26:10;;;;;;;6.88;3.97;;;;;;;18.02;100.00;99750.78;33593592;26;20462;-74
2024/04/15 02:41:12;;;;;;;10.37;4.77;;;;;;;18.43;100.00;99783.81;33586521;26;20080;-76
2024/04/15 02:56:14;;;;;;;8.27;4.32;;;;;;;18.32;100.00;99778.94;33532648;26;20003;-75
2024/04/15 03:11:16;;;;;;;10.98;4.63;;;;;;;18.37;100.00;99791.25;33555251;26;20014;-75
2024/04/15 03:26:19;;;;;;;13.97;5.23;;;;;;;18.61;100.00;99811.09;33476630;26;20063;-75
2024/04/15 03:41:21;;;;;;;9.82;4.80;;;;;;;18.89;100.00;99840.94;33587045;26;20085;-74
2024/04/15 03:56:23;;;;;;;13.23;4.13;;;;;;;19.43;100.00;99864.03;33545925;26;20470;-74
2024/04/15 04:11:26;;;;;;;19.45;4.28;;;;;;;20.23;100.00;99875.31;33538542;26;20007;-74
2024/04/15 04:26:28;;;;;;;5.80;3.75;;;;;;;20.58;100.00;99872.31;33531310;26;20158;-74
2024/04/15 04:41:31;;;;;;;10.50;3.85;;;;;;;21.27;100.00;99884.69;33539042;26;20008;-75
2024/04/15 04:56:34;;;;;;;8.98;3.47;;;;;;;21.42;100.00;99926.66;33551403;26;20003;-76
2024/04/15 05:11:36;;;;;;;5.53;3.33;;;;;;;22.09;98.65;99915.00;33494430;26;20008;-80
2024/04/15 05:26:38;;;;;;;10.55;4.50;;;;;;;22.34;94.28;99921.56;33497294;26;20004;-76
2024/04/15 05:41:41;;;;;;;7.00;3.17;;;;;;;22.19;95.05;99941.16;33557982;26;20043;-77
2024/04/15 05:56:43;;;;;;;10.23;3.75;;;;;;;22.76;89.99;99948.91;33557019;26;20081;-76
2024/04/15 06:11:45;;;;;;;6.75;3.50;;;;;;;22.74;87.11;99945.88;33517153;26;20463;-77
2024/04/15 06:26:50;;;;;;;13.02;3.75;;;;;;;23.26;81.92;99950.06;33524293;26;20039;-78
2024/04/15 06:41:53;;;;;;;12.17;2.70;;;;;;;23.94;69.43;99940.91;33591043;26;20003;-76
2024/04/15 06:56:56;;;;;;;13.77;2.50;;;;;;;24.82;64.25;99944.19;33497551;26;20016;-76
2024/04/15 07:11:58;;;;;;;28.03;4.43;;;;;;;25.66;59.69;99923.03;33532443;26;20447;-76
2024/04/15 07:27:07;;;;;;;58.55;4.28;;;;;;;26.32;55.51;99931.66;33524702;26;19999;-75
2024/04/15 07:42:10;;;;;;;12.47;2.97;;;;;;;26.67;52.39;99945.22;33491694;26;20531;-76
2024/04/15 07:57:12;;;;;;;36.47;4.23;;;;;;;27.31;49.25;99956.16;33507224;26;20531;-77
2024/04/15 08:12:14;;;;;;;24.35;3.45;;;;;;;28.48;45.44;99966.72;33495685;26;20000;-77
2024/04/15 08:27:16;;;;;;;;;;;;;;;30.00;41.98;99973.13;33542704;26;20060;-78
2024/04/15 08:42:31;;;;;;;9.73;2.00;;;;;;;30.77;39.78;99955.06;33549452;26;19932;-75
2024/04/15 08:57:35;;;;;;;13.88;1.70;;;;;;;30.56;39.77;99948.91;33566093;26;20020;-80
2024/04/15 09:12:42;;;;;;;25.13;2.78;;;;;;;31.74;37.83;99967.84;33577192;26;20000;-78
2024/04/15 09:27:45;;;;;;;6.57;1.80;;;;;;;32.40;37.17;99941.22;33497963;26;20007;-78
2024/04/15 09:42:50;;;;;;;6.93;1.52;;;;;;;32.08;36.59;99925.91;33499164;26;20451;-76
2024/04/15 09:57:57;;;;;;;3.35;1.60;;;;;;;31.16;37.06;99913.69;33463786;26;20007;-75
2024/04/15 10:13:03;;;;;;;4.32;1.70;;;;;;;31.13;36.45;99926.78;33508561;26;20394;-76
2024/04/15 10:28:09;;;;;;;7.20;1.48;;;;;;;30.14;38.39;99892.53;33501217;26;20008;-78
2024/04/15 10:43:17;;;;;;;3.28;1.90;;;;;;;30.74;38.11;99888.94;33555827;26;20006;-77
2024/04/15 10:58:19;;;;;;;8.02;1.30;;;;;;;31.03;35.82;99874.66;33507893;26;20032;-79
2024/04/15 11:13:23;;;;;;;4.55;2.15;;;;;;;33.06;34.47;99855.31;33572834;26;20141;-77
2024/04/15 11:28:26;;;;;;;2.78;1.70;;;;;;;34.05;34.88;99812.38;33601060;26;20355;-78
2024/04/15 11:43:29;;;;;;;6.15;1.80;;;;;;;32.76;34.98;99781.28;33562514;26;20078;-81
2024/04/15 11:58:32;;;;;;;4.22;1.55;;;;;;;30.78;36.43;99746.41;33539719;26;20073;-80
2024/04/15 12:13:35;;;;;;;4.47;1.58;;;;;;;29.22;38.41;99729.47;33576884;26;20014;-76
2024/04/15 12:28:38;;;;;;;8.00;2.83;;;;;;;28.69;38.75;99712.53;33539757;26;20083;-82
2024/04/15 12:43:41;;;;;;;7.43;1.92;;;;;;;28.53;40.36;99695.00;33578128;26;20016;-80
2024/04/15 12:58:43;;;;;;;4.57;2.40;;;;;;;28.08;41.33;99668.38;33568283;26;20081;-78
2024/04/15 13:13:45;;;;;;;7.82;1.50;;;;;;;27.92;41.53;99616.56;33471549;26;20008;-79
2024/04/15 13:28:48;;;;;;;5.05;2.22;;;;;;;27.96;40.94;99600.22;33543330;26;20348;-76
2024/04/15 13:43:51;;;;;;;7.05;2.03;;;;;;;27.87;42.55;99575.66;33574779;26;20020;-79
2024/04/15 13:58:55;;;;;;;6.15;2.30;;;;;;;27.83;43.26;99547.38;33446799;26;20004;-76
2024/04/15 14:14:00;;;;;;;7.80;1.88;;;;;;;27.44;44.12;99496.22;33596808;26;20082;-76
2024/04/15 14:29:03;;;;;;;6.78;2.00;;;;;;;27.40;44.85;99479.09;33529790;26;20053;-76
2024/04/15 14:44:06;;;;;;;4.80;1.50;;;;;;;27.52;44.93;99460.78;33530906;26;20044;-76
2024/04/15 14:59:11;;;;;;;7.45;1.75;;;;;;;27.43;45.22;99441.78;33519738;26;20035;-76
2024/04/15 15:14:14;;;;;;;9.23;2.63;;;;;;;27.31;45.63;99415.53;33508375;26;20012;-76
2024/04/15 15:29:17;;;;;;;3.90;1.88;;;;;;;26.93;46.53;99375.59;33562261;26;20043;-77
2024/04/15 15:44:19;;;;;;;12.30;2.72;;;;;;;26.88;47.10;99352.19;33530987;26;20041;-79
2024/04/15 15:59:21;;;;;;;;;;;;;;;26.89;48.59;99336.22;33494259;26;20000;-73
2024/04/15 16:14:24;;;;;;;10.95;3.33;;;;;;;26.72;49.56;99342.97;33533398;26;19937;-73
2024/04/15 16:29:26;;;;;;;6.90;2.93;;;;;;;26.66;50.31;99347.22;33554953;26;20011;-74
2024/04/15 16:44:28;;;;;;;9.93;2.80;;;;;;;26.31;49.30;99444.00;33563567;26;20012;-74
2024/04/15 16:59:31;;;;;;;116.50;10.47;;;;;;;25.33;54.87;99747.16;33533495;26;20614;-74
2024/04/15 17:14:33;;;;;;;11.73;2.00;;;;;;;22.13;100.00;99699.16;33575707;26;20012;-78
2024/04/15 17:29:35;;;;;;;3.97;1.77;;;;;;;21.27;100.00;99688.69;33553497;26;20424;-75
2024/04/15 17:44:38;;;;;;;5.47;2.22;;;;;;;20.86;100.00;99691.13;33524968;26;20456;-76
2024/04/15 17:59:40;;;;;;;3.60;1.65;;;;;;;20.36;100.00;99680.69;33540196;26;20018;-77
2024/04/15 18:14:44;;;;;;;14.85;7.88;;;;;;;20.35;100.00;99436.63;33526119;26;20046;-74
2024/04/15 18:29:46;;;;;;;6.80;4.10;;;;;;;20.38;100.00;99462.47;33598949;26;20014;-74
2024/04/15 18:44:51;;;;;;;3.55;2.30;;;;;;;20.11;100.00;99428.09;33513264;26;20466;-75
2024/04/15 18:59:53;;;;;;;5.82;2.05;;;;;;;19.72;100.00;99403.25;33544918;26;20000;-74
2024/04/15 19:14:56;;;;;;;4.60;1.85;;;;;;;19.82;100.00;99407.28;33553793;26;20360;-75
2024/04/15 19:30:14;;;;;;;3.25;1.80;;;;;;;19.58;100.00;99431.75;33581281;26;20014;-76
2024/04/15 19:45:17;;;;;;;4.70;2.28;;;;;;;19.50;100.00;99447.22;33537364;26;20398;-75
2024/04/15 20:00:19;;;;;;;4.78;2.13;;;;;;;19.49;100.00;99446.47;33666494;26;20043;-75
2024/04/15 20:15:22;;;;;;;8.25;4.32;;;;;;;19.06;100.00;99509.78;33577357;26;20076;-76
2024/04/15 20:30:24;;;;;;;8.15;3.50;;;;;;;19.32;100.00;99479.41;33558878;26;20048;-74
2024/04/15 20:45:27;;;;;;;3.78;2.63;;;;;;;19.70;100.00;99455.31;33532532;26;20011;-76
2024/04/15 21:00:30;;;;;;;7.22;3.88;;;;;;;20.04;100.00;99462.41;33483849;26;20073;-76
2024/04/15 21:15:32;;;;;;;3.97;2.88;;;;;;;19.62;100.00;99454.28;33550256;26;20351;-75
2024/04/15 21:30:35;;;;;;;4.35;2.90;;;;;;;19.20;100.00;99436.56;33607108;26;20027;-76
2024/04/15 21:45:37;;;;;;;5.90;2.90;;;;;;;18.87;100.00;99419.91;33543277;26;20036;-75
2024/04/15 22:00:40;;;;;;;7.43;3.35;;;;;;;18.35;100.00;99385.06;33552108;26;20023;-73
2024/04/15 22:15:43;;;;;;;7.53;3.93;;;;;;;17.67;100.00;99357.53;33549112;26;20003;-74
2024/04/15 22:30:46;;;;;;;6.60;3.93;;;;;;;16.97;100.00;99333.03;33521574;26;20081;-74
2024/04/15 22:45:49;;;;;;;9.77;4.20;;;;;;;17.08;100.00;99308.47;33514078;26;19996;-74
2024/04/15 23:00:52;;;;;;;11.20;5.37;;;;;;;17.64;100.00;99314.53;33493686;26;20010;-73
2024/04/15 23:15:54;;;;;;;8.90;5.77;;;;;;;17.38;100.00;99293.34;33481922;26;20004;-73
2024/04/15 23:31:01;;;;;;;13.67;5.50;;;;;;;17.52;100.00;99299.19;33499531;26;20316;-74
2024/04/15 23:46:04;;;;;;;7.27;5.23;;;;;;;17.34;100.00;99287.31;33594384;26;20004;-74
